sensor_id;sensor_type;location;lat;lon;timestamp;pressure;altitude;pressure_sealevel;temperature;humidity
18795;BME280;29610;49.022;12.114;2023-02-12T00:01:39;99596.72;;;4.50;100.00
18795;BME280;29610;49.022;12.114;2023-02-12T00:04:08;99590.78;;;4.48;100.00
18795;BME280;29610;49.022;12.114;2023-02-12T00:06:38;99581.38;;;4.50;100.00
18795;BME280;29610;49.022;12.114;2023-02-12T00:09:07;99589.94;;;4.24;100.00
18795;BME280;29610;49.022;12.114;2023-02-12T00:11:36;99583.59;;;4.53;100.00
18795;BME280;29610;49.022;12.114;2023-02-12T00:14:04;99570.38;;;4.52;100.00
18795;BME280;29610;49.022;12.114;2023-02-12T00:16:33;99572.97;;;4.47;100.00
18795;BME280;29610;49.022;12.114;2023-02-12T00:19:01;99576.97;;;4.44;100.00
18795;BME280;29610;49.022;12.114;2023-02-12T00:21:30;99586.09;;;4.43;100.00
18795;BME280;29610;49.022;12.114;2023-02-12T00:24:01;99577.91;;;4.38;100.00
18795;BME280;29610;49.022;12.114;2023-02-12T00:26:29;99579.88;;;4.55;100.00
18795;BME280;29610;49.022;12.114;2023-02-12T00:28:58;99578.69;;;4.62;100.00
18795;BME280;29610;49.022;12.114;2023-02-12T00:31:29;99579.66;;;4.33;100.00
18795;BME280;29610;49.022;12.114;2023-02-12T00:34:00;99586.88;;;4.56;100.00
18795;BME280;29610;49.022;12.114;2023-02-12T00:36:31;99585.59;;;4.58;100.00
18795;BME280;29610;49.022;12.114;2023-02-12T00:39:01;99581.25;;;4.57;100.00
18795;BME280;29610;49.022;12.114;2023-02-12T00:41:30;99584.31;;;4.61;100.00
18795;BME280;29610;49.022;12.114;2023-02-12T00:43:59;99603.41;;;4.59;100.00
18795;BME280;29610;49.022;12.114;2023-02-12T00:46:28;99608.19;;;4.57;100.00
18795;BME280;29610;49.022;12.114;2023-02-12T00:48:56;99608.56;;;4.37;100.00
18795;BME280;29610;49.022;12.114;2023-02-12T00:51:25;99606.81;;;4.43;100.00
18795;BME280;29610;49.022;12.114;2023-02-12T00:53:54;99608.19;;;4.34;100.00
18795;BME280;29610;49.022;12.114;2023-02-12T00:56:24;99604.13;;;4.43;100.00
18795;BME280;29610;49.022;12.114;2023-02-12T00:58:52;99609.03;;;4.46;100.00
18795;BME280;29610;49.022;12.114;2023-02-12T01:01:21;99601.97;;;4.57;100.00
18795;BME280;29610;49.022;12.114;2023-02-12T01:03:49;99598.59;;;4.61;100.00
18795;BME280;29610;49.022;12.114;2023-02-12T01:06:18;99603.63;;;4.58;100.00
18795;BME280;29610;49.022;12.114;2023-02-12T01:08:50;99608.78;;;4.47;100.00
18795;BME280;29610;49.022;12.114;2023-02-12T01:11:19;99615.78;;;4.60;100.00
18795;BME280;29610;49.022;12.114;2023-02-12T01:13:49;99615.78;;;4.72;100.00
18795;BME280;29610;49.022;12.114;2023-02-12T01:16:21;99612.84;;;4.85;100.00
18795;BME280;29610;49.022;12.114;2023-02-12T01:18:52;99618.66;;;4.93;100.00
18795;BME280;29610;49.022;12.114;2023-02-12T01:21:25;99616.47;;;4.79;100.00
18795;BME280;29610;49.022;12.114;2023-02-12T01:23:55;99618.69;;;4.82;100.00
18795;BME280;29610;49.022;12.114;2023-02-12T01:26:25;99617.28;;;4.68;100.00
18795;BME280;29610;49.022;12.114;2023-02-12T01:28:58;99612.13;;;4.78;100.00
18795;BME280;29610;49.022;12.114;2023-02-12T01:31:31;99616.69;;;4.89;100.00
18795;BME280;29610;49.022;12.114;2023-02-12T01:34:01;99609.19;;;4.91;100.00
18795;BME280;29610;49.022;12.114;2023-02-12T01:36:30;99608.81;;;4.87;100.00
18795;BME280;29610;49.022;12.114;2023-02-12T01:38:59;99613.03;;;4.95;100.00
18795;BME280;29610;49.022;12.114;2023-02-12T01:41:32;99611.03;;;4.90;100.00
18795;BME280;29610;49.022;12.114;2023-02-12T01:44:14;99609.66;;;4.88;100.00
18795;BME280;29610;49.022;12.114;2023-02-12T01:46:47;99608.28;;;4.74;100.00
18795;BME280;29610;49.022;12.114;2023-02-12T01:49:20;99613.50;;;4.92;100.00
18795;BME280;29610;49.022;12.114;2023-02-12T01:51:53;99617.84;;;4.93;100.00
18795;BME280;29610;49.022;12.114;2023-02-12T01:54:24;99611.22;;;4.72;100.00
18795;BME280;29610;49.022;12.114;2023-02-12T01:56:54;99608.72;;;4.82;100.00
18795;BME280;29610;49.022;12.114;2023-02-12T01:59:25;99619.19;;;4.79;100.00
18795;BME280;29610;49.022;12.114;2023-02-12T02:01:54;99616.38;;;4.74;100.00
18795;BME280;29610;49.022;12.114;2023-02-12T02:04:26;99617.09;;;4.58;100.00
18795;BME280;29610;49.022;12.114;2023-02-12T02:06:59;99625.72;;;4.71;100.00
18795;BME280;29610;49.022;12.114;2023-02-12T02:09:33;99627.75;;;4.64;100.00
18795;BME280;29610;49.022;12.114;2023-02-12T02:12:03;99630.31;;;4.59;100.00
18795;BME280;29610;49.022;12.114;2023-02-12T02:14:56;99626.56;;;4.72;100.00
18795;BME280;29610;49.022;12.114;2023-02-12T02:17:50;99628.31;;;4.66;100.00
18795;BME280;29610;49.022;12.114;2023-02-12T02:21:05;99624.13;;;4.59;100.00
18795;BME280;29610;49.022;12.114;2023-02-12T02:27:14;99625.34;;;4.91;100.00
18795;BME280;29610;49.022;12.114;2023-02-12T02:30:37;99624.72;;;5.00;100.00
18795;BME280;29610;49.022;12.114;2023-02-12T02:33:26;99626.16;;;4.91;100.00
18795;BME280;29610;49.022;12.114;2023-02-12T02:36:24;99622.53;;;4.97;100.00
18795;BME280;29610;49.022;12.114;2023-02-12T02:39:01;99619.72;;;4.92;100.00
18795;BME280;29610;49.022;12.114;2023-02-12T02:41:42;99618.41;;;4.95;100.00
18795;BME280;29610;49.022;12.114;2023-02-12T02:44:20;99616.66;;;5.00;100.00
18795;BME280;29610;49.022;12.114;2023-02-12T02:46:54;99616.19;;;4.92;100.00
18795;BME280;29610;49.022;12.114;2023-02-12T02:49:31;99625.34;;;4.91;100.00
18795;BME280;29610;49.022;12.114;2023-02-12T02:52:07;99636.59;;;4.88;100.00
18795;BME280;29610;49.022;12.114;2023-02-12T02:54:42;99629.00;;;4.73;100.00
18795;BME280;29610;49.022;12.114;2023-02-12T02:57:18;99625.19;;;4.58;100.00
18795;BME280;29610;49.022;12.114;2023-02-12T02:59:55;99639.44;;;4.70;100.00
18795;BME280;29610;49.022;12.114;2023-02-12T03:02:32;99636.13;;;4.79;100.00
18795;BME280;29610;49.022;12.114;2023-02-12T03:05:08;99628.78;;;4.63;100.00
18795;BME280;29610;49.022;12.114;2023-02-12T03:07:43;99626.09;;;4.63;100.00
18795;BME280;29610;49.022;12.114;2023-02-12T03:10:19;99630.69;;;4.51;100.00
18795;BME280;29610;49.022;12.114;2023-02-12T03:12:54;99626.31;;;4.62;100.00
18795;BME280;29610;49.022;12.114;2023-02-12T03:15:31;99631.81;;;4.78;100.00
18795;BME280;29610;49.022;12.114;2023-02-12T03:18:08;99639.44;;;4.81;100.00
18795;BME280;29610;49.022;12.114;2023-02-12T03:20:44;99633.69;;;4.78;100.00
18795;BME280;29610;49.022;12.114;2023-02-12T03:23:22;99643.44;;;4.56;100.00
18795;BME280;29610;49.022;12.114;2023-02-12T03:25:56;99642.25;;;4.51;100.00
18795;BME280;29610;49.022;12.114;2023-02-12T03:28:31;99642.59;;;4.55;100.00
18795;BME280;29610;49.022;12.114;2023-02-12T03:31:10;99646.94;;;4.44;100.00
18795;BME280;29610;49.022;12.114;2023-02-12T03:33:57;99642.16;;;4.46;100.00
18795;BME280;29610;49.022;12.114;2023-02-12T03:36:42;99652.34;;;4.33;100.00
18795;BME280;29610;49.022;12.114;2023-02-12T03:39:26;99652.22;;;4.28;100.00
18795;BME280;29610;49.022;12.114;2023-02-12T03:42:04;99655.16;;;4.38;100.00
18795;BME280;29610;49.022;12.114;2023-02-12T03:44:47;99651.53;;;4.21;100.00
18795;BME280;29610;49.022;12.114;2023-02-12T03:47:24;99659.56;;;4.32;100.00
18795;BME280;29610;49.022;12.114;2023-02-12T03:50:05;99662.03;;;4.34;100.00
18795;BME280;29610;49.022;12.114;2023-02-12T03:52:35;99666.84;;;4.32;100.00
18795;BME280;29610;49.022;12.114;2023-02-12T03:55:05;99662.28;;;4.56;100.00
18795;BME280;29610;49.022;12.114;2023-02-12T03:57:40;99666.13;;;4.60;100.00
18795;BME280;29610;49.022;12.114;2023-02-12T04:00:15;99662.41;;;4.61;100.00
18795;BME280;29610;49.022;12.114;2023-02-12T04:02:47;99662.16;;;4.62;100.00
18795;BME280;29610;49.022;12.114;2023-02-12T04:05:20;99666.94;;;4.48;100.00
18795;BME280;29610;49.022;12.114;2023-02-12T04:07:51;99666.63;;;4.45;100.00
18795;BME280;29610;49.022;12.114;2023-02-12T04:10:27;99677.50;;;4.50;100.00
18795;BME280;29610;49.022;12.114;2023-02-12T04:13:10;99669.06;;;4.35;100.00
18795;BME280;29610;49.022;12.114;2023-02-12T04:16:00;99677.75;;;4.37;100.00
18795;BME280;29610;49.022;12.114;2023-02-12T04:18:40;99675.50;;;4.34;100.00
18795;BME280;29610;49.022;12.114;2023-02-12T04:21:27;99682.88;;;4.27;100.00
18795;BME280;29610;49.022;12.114;2023-02-12T04:24:12;99682.31;;;4.36;100.00
18795;BME280;29610;49.022;12.114;2023-02-12T04:26:54;99684.19;;;4.47;100.00
18795;BME280;29610;49.022;12.114;2023-02-12T04:29:31;99674.34;;;4.53;100.00
18795;BME280;29610;49.022;12.114;2023-02-12T04:32:11;99686.63;;;4.49;100.00
18795;BME280;29610;49.022;12.114;2023-02-12T04:34:49;99679.22;;;4.21;100.00
18795;BME280;29610;49.022;12.114;2023-02-12T04:37:25;99695.22;;;3.93;100.00
18795;BME280;29610;49.022;12.114;2023-02-12T04:39:59;99694.56;;;4.09;100.00
18795;BME280;29610;49.022;12.114;2023-02-12T04:42:30;99693.53;;;4.33;100.00
18795;BME280;29610;49.022;12.114;2023-02-12T04:44:58;99685.13;;;4.41;100.00
18795;BME280;29610;49.022;12.114;2023-02-12T04:47:27;99688.50;;;4.48;100.00
18795;BME280;29610;49.022;12.114;2023-02-12T04:49:56;99693.66;;;4.38;100.00
18795;BME280;29610;49.022;12.114;2023-02-12T04:52:26;99700.06;;;4.14;100.00
18795;BME280;29610;49.022;12.114;2023-02-12T04:54:54;99698.31;;;4.20;100.00
18795;BME280;29610;49.022;12.114;2023-02-12T04:57:23;99706.28;;;4.26;100.00
18795;BME280;29610;49.022;12.114;2023-02-12T04:59:51;99704.41;;;4.27;100.00
18795;BME280;29610;49.022;12.114;2023-02-12T05:02:20;99703.47;;;4.33;100.00
18795;BME280;29610;49.022;12.114;2023-02-12T05:04:49;99700.22;;;4.42;100.00
18795;BME280;29610;49.022;12.114;2023-02-12T05:07:18;99691.44;;;4.35;100.00
18795;BME280;29610;49.022;12.114;2023-02-12T05:09:48;99695.66;;;4.55;100.00
18795;BME280;29610;49.022;12.114;2023-02-12T05:12:17;99702.66;;;4.44;100.00
18795;BME280;29610;49.022;12.114;2023-02-12T05:14:45;99702.06;;;4.42;100.00
18795;BME280;29610;49.022;12.114;2023-02-12T05:17:14;99706.09;;;4.63;100.00
18795;BME280;29610;49.022;12.114;2023-02-12T05:19:42;99705.25;;;4.50;100.00
18795;BME280;29610;49.022;12.114;2023-02-12T05:22:12;99702.06;;;4.42;100.00
18795;BME280;29610;49.022;12.114;2023-02-12T05:24:41;99701.16;;;4.36;100.00
18795;BME280;29610;49.022;12.114;2023-02-12T05:27:11;99708.78;;;4.51;100.00
18795;BME280;29610;49.022;12.114;2023-02-12T05:29:40;99713.91;;;4.53;100.00
18795;BME280;29610;49.022;12.114;2023-02-12T05:32:08;99705.34;;;4.44;100.00
18795;BME280;29610;49.022;12.114;2023-02-12T05:34:38;99709.69;;;4.57;100.00
18795;BME280;29610;49.022;12.114;2023-02-12T05:37:06;99715.88;;;4.45;100.00
18795;BME280;29610;49.022;12.114;2023-02-12T05:39:35;99710.41;;;4.64;100.00
18795;BME280;29610;49.022;12.114;2023-02-12T05:42:04;99714.25;;;4.33;100.00
18795;BME280;29610;49.022;12.114;2023-02-12T05:44:34;99711.69;;;4.49;100.00
18795;BME280;29610;49.022;12.114;2023-02-12T05:47:03;99714.84;;;4.58;100.00
18795;BME280;29610;49.022;12.114;2023-02-12T05:49:31;99716.59;;;4.53;100.00
18795;BME280;29610;49.022;12.114;2023-02-12T05:52:00;99710.41;;;4.52;100.00
18795;BME280;29610;49.022;12.114;2023-02-12T05:54:29;99717.56;;;4.46;100.00
18795;BME280;29610;49.022;12.114;2023-02-12T05:56:58;99724.09;;;4.50;100.00
18795;BME280;29610;49.022;12.114;2023-02-12T05:59:26;99718.03;;;4.43;100.00
18795;BME280;29610;49.022;12.114;2023-02-12T06:01:56;99711.22;;;4.41;100.00
18795;BME280;29610;49.022;12.114;2023-02-12T06:04:27;99725.47;;;4.30;100.00
18795;BME280;29610;49.022;12.114;2023-02-12T06:06:56;99723.38;;;4.32;100.00
18795;BME280;29610;49.022;12.114;2023-02-12T06:09:25;99719.03;;;4.31;100.00
18795;BME280;29610;49.022;12.114;2023-02-12T06:11:54;99723.03;;;4.28;100.00
18795;BME280;29610;49.022;12.114;2023-02-12T06:14:23;99727.09;;;4.31;100.00
18795;BME280;29610;49.022;12.114;2023-02-12T06:16:52;99738.38;;;4.51;100.00
18795;BME280;29610;49.022;12.114;2023-02-12T06:19:22;99734.50;;;4.47;100.00
18795;BME280;29610;49.022;12.114;2023-02-12T06:21:50;99740.13;;;4.45;100.00
18795;BME280;29610;49.022;12.114;2023-02-12T06:24:19;99743.41;;;4.47;100.00
18795;BME280;29610;49.022;12.114;2023-02-12T06:26:49;99746.81;;;4.43;100.00
18795;BME280;29610;49.022;12.114;2023-02-12T06:29:21;99749.59;;;4.36;100.00
18795;BME280;29610;49.022;12.114;2023-02-12T06:31:49;99749.25;;;4.44;100.00
18795;BME280;29610;49.022;12.114;2023-02-12T06:34:18;99751.34;;;4.42;100.00
18795;BME280;29610;49.022;12.114;2023-02-12T06:36:48;99760.13;;;4.38;100.00
18795;BME280;29610;49.022;12.114;2023-02-12T06:39:17;99760.38;;;4.36;100.00
18795;BME280;29610;49.022;12.114;2023-02-12T06:41:45;99755.91;;;4.42;100.00
18795;BME280;29610;49.022;12.114;2023-02-12T06:44:14;99757.34;;;4.44;100.00
18795;BME280;29610;49.022;12.114;2023-02-12T06:46:42;99766.13;;;4.51;100.00
18795;BME280;29610;49.022;12.114;2023-02-12T06:49:12;99773.06;;;4.71;100.00
18795;BME280;29610;49.022;12.114;2023-02-12T06:51:42;99772.94;;;4.89;100.00
18795;BME280;29610;49.022;12.114;2023-02-12T06:54:17;99772.59;;;4.74;100.00
18795;BME280;29610;49.022;12.114;2023-02-12T06:56:45;99769.31;;;4.83;100.00
18795;BME280;29610;49.022;12.114;2023-02-12T06:59:15;99771.06;;;5.01;100.00
18795;BME280;29610;49.022;12.114;2023-02-12T07:01:44;99764.75;;;4.95;100.00
18795;BME280;29610;49.022;12.114;2023-02-12T07:04:13;99762.63;;;4.97;100.00
18795;BME280;29610;49.022;12.114;2023-02-12T07:06:41;99768.63;;;4.88;100.00
18795;BME280;29610;49.022;12.114;2023-02-12T07:09:10;99764.97;;;4.82;100.00
18795;BME280;29610;49.022;12.114;2023-02-12T07:11:40;99758.75;;;4.93;100.00
18795;BME280;29610;49.022;12.114;2023-02-12T07:14:14;99766.50;;;4.90;100.00
18795;BME280;29610;49.022;12.114;2023-02-12T07:16:43;99773.06;;;4.82;100.00
18795;BME280;29610;49.022;12.114;2023-02-12T07:19:12;99769.09;;;4.85;100.00
18795;BME280;29610;49.022;12.114;2023-02-12T07:21:42;99779.03;;;4.73;100.00
18795;BME280;29610;49.022;12.114;2023-02-12T07:24:12;99782.88;;;4.65;100.00
18795;BME280;29610;49.022;12.114;2023-02-12T07:26:42;99780.53;;;4.57;100.00
18795;BME280;29610;49.022;12.114;2023-02-12T07:29:11;99785.13;;;4.80;100.00
18795;BME280;29610;49.022;12.114;2023-02-12T07:31:40;99780.22;;;4.88;100.00
18795;BME280;29610;49.022;12.114;2023-02-12T07:34:10;99777.75;;;4.75;100.00
18795;BME280;29610;49.022;12.114;2023-02-12T07:36:39;99789.69;;;4.56;100.00
18795;BME280;29610;49.022;12.114;2023-02-12T07:39:11;99777.41;;;4.83;100.00
18795;BME280;29610;49.022;12.114;2023-02-12T07:41:41;99781.16;;;5.05;100.00
18795;BME280;29610;49.022;12.114;2023-02-12T07:44:11;99781.63;;;5.02;100.00
18795;BME280;29610;49.022;12.114;2023-02-12T07:46:43;99776.59;;;5.06;100.00
18795;BME280;29610;49.022;12.114;2023-02-12T07:49:18;99779.13;;;5.24;100.00
18795;BME280;29610;49.022;12.114;2023-02-12T07:51:48;99779.00;;;5.30;100.00
18795;BME280;29610;49.022;12.114;2023-02-12T07:54:18;99771.81;;;5.47;100.00
18795;BME280;29610;49.022;12.114;2023-02-12T07:56:48;99777.88;;;5.66;100.00
18795;BME280;29610;49.022;12.114;2023-02-12T07:59:18;99769.06;;;5.82;100.00
18795;BME280;29610;49.022;12.114;2023-02-12T08:01:49;99767.75;;;5.73;100.00
18795;BME280;29610;49.022;12.114;2023-02-12T08:04:21;99768.56;;;5.85;100.00
18795;BME280;29610;49.022;12.114;2023-02-12T08:06:53;99770.69;;;5.83;100.00
18795;BME280;29610;49.022;12.114;2023-02-12T08:09:25;99769.56;;;5.56;100.00
18795;BME280;29610;49.022;12.114;2023-02-12T08:11:55;99773.50;;;5.76;100.00
18795;BME280;29610;49.022;12.114;2023-02-12T08:14:25;99777.44;;;5.97;100.00
18795;BME280;29610;49.022;12.114;2023-02-12T08:16:54;99772.56;;;6.11;100.00
18795;BME280;29610;49.022;12.114;2023-02-12T08:19:23;99777.47;;;6.14;100.00
18795;BME280;29610;49.022;12.114;2023-02-12T08:21:55;99783.22;;;5.89;100.00
18795;BME280;29610;49.022;12.114;2023-02-12T08:24:24;99776.22;;;5.65;100.00
18795;BME280;29610;49.022;12.114;2023-02-12T08:26:55;99782.34;;;6.00;100.00
18795;BME280;29610;49.022;12.114;2023-02-12T08:29:27;99778.88;;;6.16;100.00
18795;BME280;29610;49.022;12.114;2023-02-12T08:31:58;99783.75;;;6.47;100.00
18795;BME280;29610;49.022;12.114;2023-02-12T08:34:29;99785.09;;;6.78;100.00
18795;BME280;29610;49.022;12.114;2023-02-12T08:36:58;99778.78;;;6.56;100.00
18795;BME280;29610;49.022;12.114;2023-02-12T08:39:29;99776.81;;;6.84;100.00
18795;BME280;29610;49.022;12.114;2023-02-12T08:41:59;99782.06;;;7.29;100.00
18795;BME280;29610;49.022;12.114;2023-02-12T08:44:29;99781.66;;;7.37;100.00
18795;BME280;29610;49.022;12.114;2023-02-12T08:46:57;99786.31;;;7.41;100.00
18795;BME280;29610;49.022;12.114;2023-02-12T08:49:28;99768.38;;;7.57;100.00
18795;BME280;29610;49.022;12.114;2023-02-12T08:51:59;99781.25;;;7.28;100.00
18795;BME280;29610;49.022;12.114;2023-02-12T08:54:30;99780.56;;;7.00;100.00
18795;BME280;29610;49.022;12.114;2023-02-12T08:57:01;99788.59;;;7.33;100.00
18795;BME280;29610;49.022;12.114;2023-02-12T08:59:30;99787.16;;;7.47;100.00
18795;BME280;29610;49.022;12.114;2023-02-12T09:01:59;99774.72;;;7.68;100.00
18795;BME280;29610;49.022;12.114;2023-02-12T09:04:28;99786.22;;;7.58;100.00
18795;BME280;29610;49.022;12.114;2023-02-12T09:06:57;99781.50;;;7.48;100.00
18795;BME280;29610;49.022;12.114;2023-02-12T09:09:26;99784.22;;;7.48;100.00
18795;BME280;29610;49.022;12.114;2023-02-12T09:11:55;99793.84;;;7.39;100.00
18795;BME280;29610;49.022;12.114;2023-02-12T09:14:25;99788.25;;;7.46;100.00
18795;BME280;29610;49.022;12.114;2023-02-12T09:16:54;99788.31;;;7.73;100.00
18795;BME280;29610;49.022;12.114;2023-02-12T09:19:25;99792.72;;;7.79;100.00
18795;BME280;29610;49.022;12.114;2023-02-12T09:21:55;99793.19;;;7.71;100.00
18795;BME280;29610;49.022;12.114;2023-02-12T09:24:24;99795.03;;;7.92;100.00
18795;BME280;29610;49.022;12.114;2023-02-12T09:26:54;99791.28;;;8.19;100.00
18795;BME280;29610;49.022;12.114;2023-02-12T09:29:24;99801.53;;;7.91;100.00
18795;BME280;29610;49.022;12.114;2023-02-12T09:31:53;99802.47;;;7.80;100.00
18795;BME280;29610;49.022;12.114;2023-02-12T09:34:22;99797.81;;;7.97;100.00
18795;BME280;29610;49.022;12.114;2023-02-12T09:36:50;99799.94;;;8.16;100.00
18795;BME280;29610;49.022;12.114;2023-02-12T09:39:19;99798.78;;;8.34;100.00
18795;BME280;29610;49.022;12.114;2023-02-12T09:42:35;99806.53;;;8.25;100.00
18795;BME280;29610;49.022;12.114;2023-02-12T09:45:19;99803.91;;;8.09;100.00
18795;BME280;29610;49.022;12.114;2023-02-12T09:47:59;99809.47;;;7.97;100.00
18795;BME280;29610;49.022;12.114;2023-02-12T09:50:45;99797.84;;;7.75;100.00
18795;BME280;29610;49.022;12.114;2023-02-12T09:53:20;99809.22;;;7.56;100.00
18795;BME280;29610;49.022;12.114;2023-02-12T09:55:50;99805.44;;;7.78;100.00
18795;BME280;29610;49.022;12.114;2023-02-12T09:58:30;99805.88;;;7.70;100.00
18795;BME280;29610;49.022;12.114;2023-02-12T10:01:10;99806.72;;;7.71;100.00
18795;BME280;29610;49.022;12.114;2023-02-12T10:03:41;99807.84;;;7.75;100.00
18795;BME280;29610;49.022;12.114;2023-02-12T10:06:14;99799.88;;;8.11;100.00
18795;BME280;29610;49.022;12.114;2023-02-12T10:09:14;99810.09;;;8.26;100.00
18795;BME280;29610;49.022;12.114;2023-02-12T10:11:54;99806.41;;;8.37;100.00
18795;BME280;29610;49.022;12.114;2023-02-12T10:15:02;99811.00;;;8.63;100.00
18795;BME280;29610;49.022;12.114;2023-02-12T10:17:41;99806.63;;;8.62;100.00
18795;BME280;29610;49.022;12.114;2023-02-12T10:20:51;99809.34;;;8.93;100.00
18795;BME280;29610;49.022;12.114;2023-02-12T10:24:07;99804.41;;;9.27;100.00
18795;BME280;29610;49.022;12.114;2023-02-12T10:26:46;99805.41;;;9.58;100.00
18795;BME280;29610;49.022;12.114;2023-02-12T10:29:20;99800.59;;;9.70;100.00
18795;BME280;29610;49.022;12.114;2023-02-12T10:31:54;99800.09;;;9.83;100.00
18795;BME280;29610;49.022;12.114;2023-02-12T10:34:32;99800.75;;;10.05;100.00
18795;BME280;29610;49.022;12.114;2023-02-12T10:37:12;99803.50;;;10.15;100.00
18795;BME280;29610;49.022;12.114;2023-02-12T10:39:51;99802.22;;;10.38;100.00
18795;BME280;29610;49.022;12.114;2023-02-12T10:42:35;99803.59;;;10.60;100.00
18795;BME280;29610;49.022;12.114;2023-02-12T10:45:12;99793.00;;;10.84;100.00
18795;BME280;29610;49.022;12.114;2023-02-12T10:47:42;99800.06;;;10.95;100.00
18795;BME280;29610;49.022;12.114;2023-02-12T10:50:24;99789.47;;;10.68;100.00
18795;BME280;29610;49.022;12.114;2023-02-12T10:52:59;99787.84;;;10.62;100.00
18795;BME280;29610;49.022;12.114;2023-02-12T10:55:33;99788.34;;;10.39;100.00
18795;BME280;29610;49.022;12.114;2023-02-12T10:58:17;99799.75;;;10.36;100.00
18795;BME280;29610;49.022;12.114;2023-02-12T11:00:55;99795.16;;;10.52;100.00
18795;BME280;29610;49.022;12.114;2023-02-12T11:03:31;99788.09;;;10.71;100.00
18795;BME280;29610;49.022;12.114;2023-02-12T11:06:16;99786.50;;;10.85;100.00
18795;BME280;29610;49.022;12.114;2023-02-12T11:08:46;99789.19;;;10.60;100.00
18795;BME280;29610;49.022;12.114;2023-02-12T11:11:19;99785.69;;;10.64;100.00
18795;BME280;29610;49.022;12.114;2023-02-12T11:13:56;99788.38;;;11.04;100.00
18795;BME280;29610;49.022;12.114;2023-02-12T11:16:29;99790.84;;;10.86;100.00
18795;BME280;29610;49.022;12.114;2023-02-12T11:19:01;99781.03;;;10.70;100.00
18795;BME280;29610;49.022;12.114;2023-02-12T11:21:33;99769.63;;;10.83;100.00
18795;BME280;29610;49.022;12.114;2023-02-12T11:24:30;99769.31;;;11.14;100.00
18795;BME280;29610;49.022;12.114;2023-02-12T11:27:22;99776.13;;;11.12;100.00
18795;BME280;29610;49.022;12.114;2023-02-12T11:30:13;99772.25;;;11.43;100.00
18795;BME280;29610;49.022;12.114;2023-02-12T11:32:42;99768.94;;;11.61;100.00
18795;BME280;29610;49.022;12.114;2023-02-12T11:35:16;99765.50;;;12.04;100.00
18795;BME280;29610;49.022;12.114;2023-02-12T11:37:55;99766.16;;;12.30;100.00
18795;BME280;29610;49.022;12.114;2023-02-12T11:40:32;99768.66;;;11.57;100.00
18795;BME280;29610;49.022;12.114;2023-02-12T11:43:22;99761.50;;;11.87;100.00
18795;BME280;29610;49.022;12.114;2023-02-12T11:45:54;99764.41;;;12.00;100.00
18795;BME280;29610;49.022;12.114;2023-02-12T11:48:29;99770.38;;;12.07;100.00
18795;BME280;29610;49.022;12.114;2023-02-12T11:51:03;99769.88;;;12.00;100.00
18795;BME280;29610;49.022;12.114;2023-02-12T11:53:42;99773.53;;;11.81;100.00
18795;BME280;29610;49.022;12.114;2023-02-12T11:56:14;99766.97;;;11.76;100.00
18795;BME280;29610;49.022;12.114;2023-02-12T11:58:45;99770.03;;;11.55;100.00
18795;BME280;29610;49.022;12.114;2023-02-12T12:01:19;99771.38;;;11.62;100.00
18795;BME280;29610;49.022;12.114;2023-02-12T12:03:57;99777.69;;;11.48;100.00
18795;BME280;29610;49.022;12.114;2023-02-12T12:06:36;99779.28;;;11.69;100.00
18795;BME280;29610;49.022;12.114;2023-02-12T12:09:17;99778.53;;;11.38;100.00
18795;BME280;29610;49.022;12.114;2023-02-12T12:11:57;99775.19;;;11.61;100.00
18795;BME280;29610;49.022;12.114;2023-02-12T12:14:34;99768.59;;;11.77;100.00
18795;BME280;29610;49.022;12.114;2023-02-12T12:17:37;99775.19;;;11.61;100.00
18795;BME280;29610;49.022;12.114;2023-02-12T12:20:31;99768.66;;;11.57;100.00
18795;BME280;29610;49.022;12.114;2023-02-12T12:23:12;99765.09;;;11.62;100.00
18795;BME280;29610;49.022;12.114;2023-02-12T12:25:50;99766.22;;;11.66;100.00
18795;BME280;29610;49.022;12.114;2023-02-12T12:28:30;99769.16;;;11.79;100.00
18795;BME280;29610;49.022;12.114;2023-02-12T12:31:07;99758.66;;;12.07;100.00
18795;BME280;29610;49.022;12.114;2023-02-12T12:33:43;99758.63;;;12.12;100.00
18795;BME280;29610;49.022;12.114;2023-02-12T12:36:50;99761.41;;;12.45;100.00
18795;BME280;29610;49.022;12.114;2023-02-12T12:39:34;99759.75;;;12.83;100.00
18795;BME280;29610;49.022;12.114;2023-02-12T12:42:45;99751.78;;;13.20;100.00
18795;BME280;29610;49.022;12.114;2023-02-12T12:45:39;99747.50;;;13.61;100.00
18795;BME280;29610;49.022;12.114;2023-02-12T12:48:27;99742.13;;;13.56;100.00
18795;BME280;29610;49.022;12.114;2023-02-12T12:51:31;99733.06;;;13.79;100.00
18795;BME280;29610;49.022;12.114;2023-02-12T12:54:20;99741.84;;;13.58;100.00
18795;BME280;29610;49.022;12.114;2023-02-12T12:57:04;99740.38;;;13.84;100.00
18795;BME280;29610;49.022;12.114;2023-02-12T13:00:02;99736.34;;;13.81;100.00
18795;BME280;29610;49.022;12.114;2023-02-12T13:03:18;99750.88;;;13.77;100.00
18795;BME280;29610;49.022;12.114;2023-02-12T13:06:07;99742.38;;;13.55;100.00
18795;BME280;29610;49.022;12.114;2023-02-12T13:09:07;99743.38;;;13.64;100.00
18795;BME280;29610;49.022;12.114;2023-02-12T13:11:53;99746.63;;;13.89;100.00
18795;BME280;29610;49.022;12.114;2023-02-12T13:14:36;99739.47;;;14.12;100.00
18795;BME280;29610;49.022;12.114;2023-02-12T13:17:17;99734.47;;;14.37;100.00
18795;BME280;29610;49.022;12.114;2023-02-12T13:20:06;99739.06;;;13.81;100.00
18795;BME280;29610;49.022;12.114;2023-02-12T13:22:44;99734.38;;;14.42;100.00
18795;BME280;29610;49.022;12.114;2023-02-12T13:25:26;99736.59;;;14.91;100.00
18795;BME280;29610;49.022;12.114;2023-02-12T13:27:59;99727.31;;;14.74;100.00
18795;BME280;29610;49.022;12.114;2023-02-12T13:30:36;99726.59;;;14.68;100.00
18795;BME280;29610;49.022;12.114;2023-02-12T13:33:16;99728.75;;;14.71;100.00